createdAt,value
2022-10-31T00:01:30.340Z,8.13
2022-10-31T00:03:58.476Z,7.82
2022-10-31T00:06:26.500Z,8.18
2022-10-31T00:08:57.416Z,8.35
2022-10-31T00:11:26.107Z,8.40
2022-10-31T00:13:54.077Z,7.88
2022-10-31T00:16:24.164Z,8.23
2022-10-31T00:18:52.536Z,7.38
2022-10-31T00:21:21.329Z,7.85
2022-10-31T00:23:49.480Z,6.95
2022-10-31T00:26:19.695Z,7.28
2022-10-31T00:28:47.829Z,6.65
2022-10-31T00:31:16.345Z,7.97
2022-10-31T00:33:44.755Z,9.82
2022-10-31T00:36:15.022Z,7.97
2022-10-31T00:38:43.806Z,8.38
2022-10-31T00:41:11.884Z,7.90
2022-10-31T00:43:41.205Z,7.80
2022-10-31T00:46:09.111Z,8.15
2022-10-31T00:48:37.045Z,7.78
2022-10-31T00:51:05.219Z,7.85
2022-10-31T00:53:33.226Z,7.78
2022-10-31T00:56:01.139Z,8.05
2022-10-31T00:58:29.301Z,8.38
2022-10-31T01:00:58.807Z,9.05
2022-10-31T01:03:29.820Z,8.23
2022-10-31T01:05:59.663Z,8.98
2022-10-31T01:08:27.849Z,8.40
2022-10-31T01:11:08.913Z,8.23
2022-10-31T01:13:38.112Z,8.07
2022-10-31T01:16:10.263Z,7.60
2022-10-31T01:18:38.545Z,7.38
2022-10-31T01:21:08.788Z,6.38
2022-10-31T01:23:37.455Z,6.88
2022-10-31T01:26:10.905Z,5.57
2022-10-31T01:28:40.592Z,5.80
2022-10-31T01:31:11.615Z,5.97
2022-10-31T01:33:40.285Z,5.88
2022-10-31T01:36:21.656Z,6.07
2022-10-31T01:38:50.437Z,6.10
2022-10-31T01:41:21.681Z,6.65
2022-10-31T01:43:52.514Z,6.47
2022-10-31T01:46:26.465Z,5.97
2022-10-31T01:48:56.258Z,6.53
2022-10-31T01:51:28.214Z,6.45
2022-10-31T01:54:00.288Z,6.37
2022-10-31T01:56:29.035Z,6.88
2022-10-31T01:58:58.805Z,6.60
2022-10-31T02:01:28.239Z,6.50
2022-10-31T02:03:57.913Z,6.20
2022-10-31T02:06:38.005Z,7.32
2022-10-31T02:09:07.344Z,7.15
2022-10-31T02:11:38.207Z,5.50
2022-10-31T02:14:06.686Z,5.95
2022-10-31T02:16:36.026Z,6.20
2022-10-31T02:19:06.274Z,6.03
2022-10-31T02:21:42.072Z,6.18
2022-10-31T02:24:32.366Z,6.15
2022-10-31T02:27:10.319Z,5.63
2022-10-31T02:30:02.763Z,6.05
2022-10-31T02:32:48.865Z,4.88
2022-10-31T02:35:27.935Z,6.05
2022-10-31T02:38:09.185Z,5.80
2022-10-31T02:40:41.848Z,5.55
2022-10-31T02:43:19.484Z,5.95
2022-10-31T02:45:52.469Z,5.60
2022-10-31T02:48:27.709Z,5.97
2022-10-31T02:50:59.691Z,5.85
2022-10-31T02:53:28.134Z,5.80
2022-10-31T02:56:01.719Z,5.45
2022-10-31T02:58:33.688Z,5.50
2022-10-31T03:01:29.823Z,5.30
2022-10-31T03:04:14.057Z,6.05
2022-10-31T03:06:48.119Z,5.80
2022-10-31T03:09:24.708Z,6.57
2022-10-31T03:12:00.199Z,5.57
2022-10-31T03:14:35.583Z,6.20
2022-10-31T03:17:08.183Z,5.85
2022-10-31T03:19:41.832Z,6.68
2022-10-31T03:22:17.685Z,6.63
2022-10-31T03:24:47.192Z,7.57
2022-10-31T03:27:18.231Z,7.57
2022-10-31T03:29:47.820Z,8.38
2022-10-31T03:32:19.540Z,7.55
2022-10-31T03:34:50.340Z,7.38
2022-10-31T03:37:23.082Z,7.40
2022-10-31T03:39:52.058Z,6.78
2022-10-31T03:42:25.086Z,7.10
2022-10-31T03:44:58.855Z,6.88
2022-10-31T03:47:27.347Z,7.35
2022-10-31T03:49:57.427Z,7.00
2022-10-31T03:52:30.962Z,7.78
2022-10-31T03:55:06.382Z,6.40
2022-10-31T03:57:41.016Z,7.05
2022-10-31T04:00:12.034Z,6.95
2022-10-31T04:02:44.757Z,6.53
2022-10-31T04:07:48.966Z,6.57
2022-10-31T04:10:18.147Z,7.03
2022-10-31T04:12:50.594Z,7.03
2022-10-31T04:15:18.688Z,6.57
2022-10-31T04:17:49.889Z,6.07
2022-10-31T04:20:20.047Z,6.57
2022-10-31T04:22:48.016Z,7.55
2022-10-31T04:25:16.256Z,6.50
2022-10-31T04:27:44.299Z,6.25
2022-10-31T04:30:12.896Z,6.38
2022-10-31T04:32:40.919Z,6.05
2022-10-31T04:35:09.518Z,6.10
2022-10-31T04:37:39.005Z,6.20
2022-10-31T04:40:08.041Z,6.10
2022-10-31T04:42:36.196Z,6.82
2022-10-31T04:45:04.328Z,6.60
2022-10-31T04:47:33.715Z,6.63
2022-10-31T04:50:01.934Z,5.50
2022-10-31T04:52:29.983Z,5.93
2022-10-31T04:54:59.508Z,6.00
2022-10-31T04:57:27.585Z,5.90
2022-10-31T04:59:55.588Z,5.60
2022-10-31T05:02:23.712Z,6.20
2022-10-31T05:04:51.806Z,5.70
2022-10-31T05:07:19.838Z,5.85
2022-10-31T05:09:47.893Z,6.30
2022-10-31T05:12:17.299Z,6.07
2022-10-31T05:14:48.492Z,5.85
2022-10-31T05:17:16.835Z,6.05
2022-10-31T05:19:44.718Z,6.05
2022-10-31T05:22:12.774Z,6.90
2022-10-31T05:24:40.787Z,5.47
2022-10-31T05:27:08.755Z,5.45
2022-10-31T05:29:38.197Z,5.90
2022-10-31T05:32:06.597Z,5.30
2022-10-31T05:34:34.749Z,5.30
2022-10-31T05:37:02.738Z,5.85
2022-10-31T05:39:30.757Z,5.68
2022-10-31T05:41:58.829Z,5.90
2022-10-31T05:44:26.918Z,5.50
2022-10-31T05:46:56.316Z,5.43
2022-10-31T05:49:24.890Z,5.40
2022-10-31T05:51:53.262Z,6.07
2022-10-31T05:54:21.217Z,5.90
2022-10-31T05:56:49.177Z,5.55
2022-10-31T05:59:17.487Z,5.90
2022-10-31T06:01:45.646Z,5.85
2022-10-31T06:04:15.109Z,5.60
2022-10-31T06:06:43.111Z,6.07
2022-10-31T06:09:11.598Z,6.10
2022-10-31T06:11:39.642Z,5.25
2022-10-31T06:14:08.202Z,6.07
2022-10-31T06:16:36.214Z,6.05
2022-10-31T06:19:04.361Z,6.13
2022-10-31T06:21:33.688Z,5.68
2022-10-31T06:24:01.647Z,5.68
2022-10-31T06:26:29.660Z,6.00
2022-10-31T06:29:02.949Z,6.30
2022-10-31T06:31:32.433Z,6.35
2022-10-31T06:34:00.424Z,6.28
2022-10-31T06:41:30.731Z,6.93
2022-10-31T06:43:58.662Z,7.45
2022-10-31T06:46:26.637Z,6.47
2022-10-31T06:48:54.695Z,6.78
2022-10-31T06:51:22.662Z,6.80
2022-10-31T06:53:50.644Z,6.65
2022-10-31T06:56:20.069Z,7.07
2022-10-31T06:58:48.088Z,6.78
2022-10-31T07:01:16.157Z,6.43
2022-10-31T07:03:44.221Z,6.20
2022-10-31T07:06:12.157Z,5.55
2022-10-31T07:08:40.329Z,7.03
2022-10-31T07:11:08.241Z,6.03
2022-10-31T07:13:37.442Z,6.63
2022-10-31T07:16:07.597Z,6.40
2022-10-31T07:18:36.240Z,6.70
2022-10-31T07:21:04.275Z,7.47
2022-10-31T07:23:32.262Z,6.72
2022-10-31T07:26:01.352Z,7.13
2022-10-31T07:28:29.756Z,6.85
2022-10-31T07:31:00.083Z,8.20
2022-10-31T07:33:28.376Z,7.60
2022-10-31T07:35:56.405Z,8.18
2022-10-31T07:38:24.275Z,6.90
2022-10-31T07:40:54.035Z,8.07
2022-10-31T07:43:22.275Z,7.43
2022-10-31T07:45:54.043Z,7.30
2022-10-31T07:48:23.445Z,8.68
2022-10-31T07:50:51.321Z,8.23
2022-10-31T07:53:19.189Z,7.68
2022-10-31T07:55:47.069Z,7.95
2022-10-31T07:58:16.700Z,7.93
2022-10-31T08:00:46.716Z,7.57
2022-10-31T08:03:16.331Z,7.72
2022-10-31T08:05:47.101Z,7.93
2022-10-31T08:08:15.764Z,8.30
2022-10-31T08:10:44.348Z,8.95
2022-10-31T08:13:14.701Z,8.63
2022-10-31T08:15:43.424Z,8.13
2022-10-31T08:18:15.039Z,8.82
2022-10-31T08:20:43.701Z,7.75
2022-10-31T08:23:14.401Z,7.95
2022-10-31T08:25:42.924Z,7.78
2022-10-31T08:28:12.788Z,7.78
2022-10-31T08:30:40.804Z,7.97
2022-10-31T08:33:12.543Z,8.25
2022-10-31T08:35:40.466Z,8.05
2022-10-31T08:38:09.265Z,7.82
2022-10-31T08:40:38.705Z,7.88
2022-10-31T08:43:08.064Z,7.63
2022-10-31T08:45:36.849Z,8.52
2022-10-31T08:48:07.221Z,7.95
2022-10-31T08:50:37.305Z,8.05
2022-10-31T08:53:06.881Z,8.00
2022-10-31T08:55:36.448Z,7.47
2022-10-31T08:58:06.896Z,9.13
2022-10-31T09:00:35.675Z,7.80
2022-10-31T09:03:05.612Z,7.78
2022-10-31T09:05:33.828Z,7.40
2022-10-31T09:08:04.028Z,7.78
2022-10-31T09:10:34.242Z,7.75
2022-10-31T09:13:07.258Z,7.43
2022-10-31T09:15:39.292Z,7.38
2022-10-31T09:18:07.568Z,7.80
2022-10-31T09:20:37.028Z,7.40
2022-10-31T09:23:07.306Z,8.38
2022-10-31T09:25:36.586Z,7.90
2022-10-31T09:28:06.293Z,7.93
2022-10-31T09:30:37.214Z,8.10
2022-10-31T09:33:08.216Z,8.52
2022-10-31T09:35:36.085Z,8.30
2022-10-31T09:38:05.369Z,8.50
2022-10-31T09:40:36.697Z,8.93
2022-10-31T09:43:15.049Z,8.80
2022-10-31T09:45:55.926Z,9.57
2022-10-31T09:48:34.093Z,8.73
2022-10-31T09:51:06.563Z,9.63
2022-10-31T09:53:40.349Z,9.27
2022-10-31T09:56:11.765Z,9.90
2022-10-31T09:58:45.316Z,9.45
2022-10-31T10:01:25.892Z,10.10
2022-10-31T10:03:59.750Z,10.02
2022-10-31T10:06:31.219Z,9.40
2022-10-31T10:08:59.126Z,9.65
2022-10-31T10:11:43.172Z,10.50
2022-10-31T10:14:25.935Z,10.70
2022-10-31T10:17:10.033Z,10.63
2022-10-31T10:19:55.269Z,10.38
2022-10-31T10:22:32.645Z,10.90
2022-10-31T10:25:14.540Z,9.88
2022-10-31T10:27:52.066Z,10.07
2022-10-31T10:30:22.396Z,9.32
2022-10-31T10:32:55.331Z,9.63
2022-10-31T10:35:28.374Z,10.27
2022-10-31T10:38:01.485Z,9.90
2022-10-31T10:40:30.972Z,10.02
2022-10-31T10:43:21.366Z,9.88
2022-10-31T10:46:11.854Z,9.88
2022-10-31T10:48:58.320Z,10.18
2022-10-31T10:51:54.712Z,9.60
2022-10-31T10:54:41.053Z,9.43
2022-10-31T10:57:21.149Z,9.50
2022-10-31T10:59:49.664Z,9.80
2022-10-31T11:02:20.165Z,10.48
2022-10-31T11:04:53.238Z,9.65
2022-10-31T11:07:21.631Z,9.77
2022-10-31T11:09:49.752Z,10.23
2022-10-31T11:12:23.800Z,9.85
2022-10-31T11:14:56.898Z,10.45
2022-10-31T11:17:32.233Z,9.70
2022-10-31T11:20:07.638Z,10.52
2022-10-31T11:22:35.491Z,9.60
2022-10-31T11:25:13.675Z,9.30
2022-10-31T11:27:41.418Z,9.20
2022-10-31T11:30:11.823Z,9.93
2022-10-31T11:32:49.693Z,9.55
2022-10-31T11:35:21.074Z,8.93
2022-10-31T11:37:50.735Z,8.70
2022-10-31T11:40:21.298Z,10.15
2022-10-31T11:42:51.225Z,9.73
2022-10-31T11:45:28.197Z,9.93
2022-10-31T11:48:00.095Z,10.30
2022-10-31T11:50:35.161Z,9.80
2022-10-31T11:53:04.457Z,10.20
2022-10-31T11:55:35.056Z,10.32
2022-10-31T11:58:03.223Z,9.65
2022-10-31T12:00:33.650Z,9.93
2022-10-31T12:03:16.104Z,9.82
2022-10-31T12:05:49.413Z,10.15
2022-10-31T12:08:17.200Z,9.35
2022-10-31T12:11:01.353Z,9.85
2022-10-31T12:13:36.399Z,9.57
2022-10-31T12:16:13.201Z,10.07
2022-10-31T12:18:54.613Z,8.70
2022-10-31T12:21:42.142Z,9.52
2022-10-31T12:24:20.432Z,9.70
2022-10-31T12:26:58.625Z,9.60
2022-10-31T12:29:43.312Z,10.20
2022-10-31T12:32:22.696Z,9.02
2022-10-31T12:35:18.059Z,9.88
2022-10-31T12:37:59.520Z,9.30
2022-10-31T12:40:39.316Z,10.63
2022-10-31T12:43:22.972Z,9.55
2022-10-31T12:45:56.809Z,10.10
2022-10-31T12:48:44.180Z,9.65
2022-10-31T12:51:21.862Z,10.10
2022-10-31T12:54:05.690Z,9.35
2022-10-31T12:56:47.963Z,9.98
2022-10-31T12:59:22.496Z,10.88
2022-10-31T13:01:55.560Z,9.77
2022-10-31T13:04:30.860Z,10.13
2022-10-31T13:07:03.076Z,10.52
2022-10-31T13:09:37.910Z,10.40
2022-10-31T13:12:10.959Z,9.40
2022-10-31T13:14:43.836Z,10.15
2022-10-31T13:17:21.800Z,10.27
2022-10-31T13:19:50.722Z,9.27
2022-10-31T13:22:22.681Z,9.45
2022-10-31T13:24:59.127Z,10.05
2022-10-31T13:27:30.380Z,12.00
2022-10-31T13:30:03.510Z,10.60
2022-10-31T13:32:41.788Z,10.63
2022-10-31T13:35:16.840Z,10.85
2022-10-31T13:37:54.511Z,9.65
2022-10-31T13:40:36.143Z,9.73
2022-10-31T13:43:13.628Z,8.95
2022-10-31T13:45:51.407Z,9.70
2022-10-31T13:48:37.201Z,9.52
2022-10-31T13:51:08.468Z,9.38
2022-10-31T13:53:46.639Z,9.38
2022-10-31T13:56:24.594Z,9.10
2022-10-31T13:59:20.664Z,9.18
2022-10-31T14:01:51.678Z,9.20
2022-10-31T14:04:25.577Z,8.40
2022-10-31T14:07:06.689Z,8.65
2022-10-31T14:09:37.119Z,8.10
2022-10-31T14:12:09.480Z,7.93
2022-10-31T14:14:49.996Z,7.50
2022-10-31T14:17:22.273Z,7.30
2022-10-31T14:20:23.585Z,7.40
2022-10-31T14:22:51.615Z,7.50
2022-10-31T14:25:30.929Z,8.23
2022-10-31T14:28:02.202Z,8.30
2022-10-31T14:30:31.974Z,7.68
2022-10-31T14:33:02.268Z,7.88
2022-10-31T14:35:53.843Z,7.82
2022-10-31T14:38:35.906Z,8.38
2022-10-31T14:41:20.784Z,8.15
2022-10-31T14:44:27.939Z,7.47
2022-10-31T14:47:04.262Z,7.63
2022-10-31T14:49:48.587Z,8.43
2022-10-31T14:52:19.250Z,7.88
2022-10-31T14:54:52.447Z,7.78
2022-10-31T14:57:24.409Z,7.32
2022-10-31T15:00:02.699Z,7.68
2022-10-31T15:02:37.808Z,8.27
2022-10-31T15:05:09.745Z,12.25
2022-10-31T15:07:40.918Z,12.33
2022-10-31T15:10:22.972Z,12.00
2022-10-31T15:12:50.891Z,12.45
2022-10-31T15:15:23.385Z,13.15
2022-10-31T15:17:54.808Z,39.95
2022-10-31T15:20:25.170Z,26.52
2022-10-31T15:22:53.664Z,16.92
2022-10-31T15:25:23.295Z,12.25
2022-10-31T15:27:52.664Z,12.32
2022-10-31T15:30:24.682Z,11.70
2022-10-31T15:33:01.129Z,10.75
2022-10-31T15:35:30.961Z,10.40
2022-10-31T15:38:00.995Z,12.55
2022-10-31T15:40:29.989Z,11.02
2022-10-31T15:42:59.941Z,12.25
2022-10-31T15:45:31.577Z,13.55
2022-10-31T15:48:02.154Z,12.23
2022-10-31T15:50:34.586Z,12.05
2022-10-31T15:53:03.757Z,11.93
2022-10-31T15:55:35.195Z,12.10
2022-10-31T15:58:05.808Z,12.07
2022-10-31T16:00:36.925Z,13.77
2022-10-31T16:03:06.646Z,13.43
2022-10-31T16:05:40.800Z,12.43
2022-10-31T16:08:27.380Z,13.20
2022-10-31T16:10:55.906Z,13.60
2022-10-31T16:13:28.166Z,13.57
2022-10-31T16:16:28.762Z,14.75
2022-10-31T16:21:24.592Z,19.75
2022-10-31T16:24:01.048Z,22.65
2022-10-31T16:26:32.399Z,15.50
2022-10-31T16:29:05.657Z,17.08
2022-10-31T16:31:42.002Z,15.57
2022-10-31T16:34:16.839Z,16.17
2022-10-31T16:36:44.807Z,13.80
2022-10-31T16:39:14.466Z,14.98
2022-10-31T16:41:44.265Z,14.40
2022-10-31T16:44:18.935Z,12.07
2022-10-31T16:46:48.160Z,10.98
2022-10-31T16:49:17.452Z,11.75
2022-10-31T16:51:46.495Z,11.38
2022-10-31T16:54:14.192Z,11.13
2022-10-31T16:56:41.996Z,10.70
2022-10-31T16:59:16.249Z,11.15
2022-10-31T17:01:48.487Z,16.92
2022-10-31T17:04:17.896Z,16.27
2022-10-31T17:06:46.125Z,15.20
2022-10-31T17:09:13.883Z,12.85
2022-10-31T17:11:49.328Z,11.25
2022-10-31T17:14:18.410Z,11.05
2022-10-31T17:16:46.288Z,11.93
2022-10-31T17:19:14.204Z,11.68
2022-10-31T17:21:43.905Z,12.32
2022-10-31T17:24:16.854Z,11.85
2022-10-31T17:26:44.655Z,12.35
2022-10-31T17:29:12.564Z,12.82
2022-10-31T17:31:40.469Z,12.07
2022-10-31T17:34:08.759Z,12.70
2022-10-31T17:36:37.051Z,15.32
2022-10-31T17:39:09.650Z,15.32
2022-10-31T17:41:37.487Z,14.07
2022-10-31T17:44:05.558Z,15.77
2022-10-31T17:46:33.345Z,19.48
2022-10-31T17:49:01.826Z,18.52
2022-10-31T17:51:29.596Z,16.08
2022-10-31T17:53:58.654Z,12.55
2022-10-31T17:56:28.034Z,12.82
2022-10-31T17:58:57.955Z,10.98
2022-10-31T18:01:25.996Z,11.48
2022-10-31T18:03:53.823Z,11.57
2022-10-31T18:06:21.595Z,11.30
2022-10-31T18:08:49.413Z,10.98
2022-10-31T18:11:19.674Z,11.18
2022-10-31T18:13:48.800Z,10.90
2022-10-31T18:16:19.113Z,11.63
2022-10-31T18:18:52.060Z,10.85
2022-10-31T18:21:20.101Z,10.95
2022-10-31T18:23:48.009Z,11.88
2022-10-31T18:26:15.839Z,15.00
2022-10-31T18:28:43.768Z,13.82
2022-10-31T18:31:12.982Z,15.93
2022-10-31T18:33:42.515Z,17.33
2022-10-31T18:36:11.903Z,16.55
2022-10-31T18:38:41.122Z,16.23
2022-10-31T18:41:10.039Z,15.63
2022-10-31T18:43:37.923Z,14.98
2022-10-31T18:46:08.902Z,21.65
2022-10-31T18:48:38.361Z,21.45
2022-10-31T18:51:07.482Z,21.55
2022-10-31T18:53:35.888Z,18.67
2022-10-31T18:56:07.741Z,18.10
2022-10-31T18:58:35.700Z,16.57
2022-10-31T19:01:07.945Z,17.42
2022-10-31T19:03:35.845Z,16.35
2022-10-31T19:06:06.079Z,15.82
2022-10-31T19:08:34.284Z,15.05
2022-10-31T19:11:05.981Z,15.07
2022-10-31T19:13:34.221Z,15.02
2022-10-31T19:16:06.562Z,15.80
2022-10-31T19:18:34.697Z,15.05
2022-10-31T19:21:07.919Z,15.48
2022-10-31T19:23:35.714Z,21.20
2022-10-31T19:26:03.912Z,20.15
2022-10-31T19:28:32.601Z,17.25
2022-10-31T19:31:00.958Z,21.77
2022-10-31T19:33:34.909Z,25.63
2022-10-31T19:36:08.315Z,21.80
2022-10-31T19:38:39.029Z,23.38
2022-10-31T19:41:08.820Z,22.83
2022-10-31T19:43:36.976Z,20.38
2022-10-31T19:46:06.220Z,24.13
2022-10-31T19:48:36.867Z,29.02
2022-10-31T19:51:07.623Z,28.48
2022-10-31T19:53:38.162Z,32.10
2022-10-31T19:56:11.406Z,34.10
2022-10-31T19:58:39.265Z,21.58
2022-10-31T20:01:10.795Z,17.55
2022-10-31T20:03:40.118Z,15.32
2022-10-31T20:06:08.857Z,14.27
2022-10-31T20:08:39.440Z,15.00
2022-10-31T20:11:07.897Z,15.38
2022-10-31T20:13:35.719Z,13.48
2022-10-31T20:16:06.781Z,14.13
2022-10-31T20:18:35.730Z,18.08
2022-10-31T20:21:05.220Z,14.65
2022-10-31T20:23:34.086Z,15.77
2022-10-31T20:26:04.143Z,20.02
2022-10-31T20:28:32.325Z,19.90
2022-10-31T20:31:00.159Z,47.60
2022-10-31T20:33:28.690Z,34.95
2022-10-31T20:35:56.442Z,32.22
2022-10-31T20:38:24.336Z,49.20
2022-10-31T20:40:52.127Z,39.75
2022-10-31T20:43:21.306Z,50.05
2022-10-31T20:45:49.097Z,47.08
2022-10-31T20:48:16.852Z,52.92
2022-10-31T20:50:44.554Z,62.78
2022-10-31T20:53:12.393Z,60.45
2022-10-31T20:55:40.146Z,49.40
2022-10-31T20:58:08.086Z,37.72
2022-10-31T21:00:38.477Z,28.92
2022-10-31T21:03:06.171Z,28.00
2022-10-31T21:05:34.082Z,52.08
2022-10-31T21:08:01.889Z,27.20
2022-10-31T21:10:29.981Z,29.13
2022-10-31T21:12:58.113Z,22.65
2022-10-31T21:15:26.007Z,17.88
2022-10-31T21:17:55.678Z,14.90
2022-10-31T21:20:23.495Z,17.85
2022-10-31T21:22:51.266Z,19.30
2022-10-31T21:25:19.463Z,19.38
2022-10-31T21:27:47.395Z,17.63
2022-10-31T21:30:15.915Z,19.52
2022-10-31T21:32:43.605Z,19.25
2022-10-31T21:35:12.781Z,21.80
2022-10-31T21:37:40.450Z,19.10
2022-10-31T21:40:09.505Z,17.98
2022-10-31T21:42:37.298Z,16.10
2022-10-31T21:45:05.499Z,15.18
2022-10-31T21:47:33.350Z,16.70
2022-10-31T21:50:01.132Z,17.85
2022-10-31T21:52:30.736Z,16.52
2022-10-31T21:54:57.441Z,17.42
2022-10-31T21:57:25.171Z,17.08
2022-10-31T21:59:52.963Z,17.23
2022-10-31T22:02:20.778Z,17.27
2022-10-31T22:04:50.285Z,16.35
2022-10-31T22:07:18.205Z,16.05
2022-10-31T22:09:47.437Z,15.70
2022-10-31T22:12:15.415Z,14.50
2022-10-31T22:17:11.108Z,14.73
2022-10-31T22:19:38.855Z,14.40
2022-10-31T22:22:06.659Z,14.30
2022-10-31T22:24:34.453Z,15.05
2022-10-31T22:27:03.608Z,14.95
2022-10-31T22:29:31.447Z,16.73
2022-10-31T22:31:59.728Z,15.45
2022-10-31T22:34:29.345Z,15.23
2022-10-31T22:36:57.301Z,15.80
2022-10-31T22:39:25.036Z,15.07
2022-10-31T22:41:52.840Z,14.40
2022-10-31T22:44:21.971Z,14.45
2022-10-31T22:46:49.791Z,15.02
2022-10-31T22:49:17.847Z,15.10
2022-10-31T22:51:46.166Z,14.93
2022-10-31T22:54:15.679Z,14.75
2022-10-31T22:56:43.530Z,14.88
2022-10-31T22:59:13.267Z,14.65
2022-10-31T23:01:44.868Z,15.77
2022-10-31T23:04:13.352Z,15.25
2022-10-31T23:06:41.399Z,15.48
2022-10-31T23:09:09.812Z,14.45
2022-10-31T23:11:40.596Z,14.57
2022-10-31T23:14:13.761Z,15.45
2022-10-31T23:16:48.716Z,13.65
2022-10-31T23:19:18.293Z,14.60
2022-10-31T23:21:57.395Z,14.65
2022-10-31T23:24:29.139Z,16.30
2022-10-31T23:27:10.078Z,15.02
2022-10-31T23:29:41.326Z,14.90
2022-10-31T23:32:13.347Z,14.23
2022-10-31T23:34:41.271Z,15.95
2022-10-31T23:37:09.193Z,15.52
2022-10-31T23:39:37.208Z,15.55
2022-10-31T23:42:05.176Z,16.05
2022-10-31T23:44:32.945Z,15.00
2022-10-31T23:47:00.810Z,15.38
2022-10-31T23:49:30.467Z,14.38
2022-10-31T23:51:58.232Z,15.68
2022-10-31T23:54:27.252Z,14.90
2022-10-31T23:56:55.484Z,14.73
2022-10-31T23:59:23.309Z,15.00
